sensor_id;sensor_type;location;lat;lon;timestamp;temperature;humidity
49052;DHT22;34866;48.670;18.260;2023-12-22T16:18:50;77.00;6476.80
49052;DHT22;34866;48.670;18.260;2023-12-22T16:21:16;52.10;6476.80
49052;DHT22;34866;48.670;18.260;2023-12-22T16:23:42;52.00;6476.80
49052;DHT22;34866;48.670;18.260;2023-12-22T16:26:10;52.00;6476.80
49052;DHT22;34866;48.670;18.260;2023-12-22T16:28:36;52.00;6476.80
49052;DHT22;34866;48.670;18.260;2023-12-22T16:31:03;51.90;6476.80
49052;DHT22;34866;48.670;18.260;2023-12-22T16:33:29;51.90;6476.80
49052;DHT22;34866;48.670;18.260;2023-12-22T16:35:56;52.00;6476.80
49052;DHT22;34866;48.670;18.260;2023-12-22T16:38:22;52.00;6476.80
49052;DHT22;34866;48.670;18.260;2023-12-22T16:40:48;76.80;6476.80
49052;DHT22;34866;48.670;18.260;2023-12-22T16:43:16;52.00;6476.80
49052;DHT22;34866;48.670;18.260;2023-12-22T16:45:41;52.00;6476.80
49052;DHT22;34866;48.670;18.260;2023-12-22T16:48:07;52.00;6476.80
49052;DHT22;34866;48.670;18.260;2023-12-22T16:50:33;52.00;6476.80
49052;DHT22;34866;48.670;18.260;2023-12-22T16:52:58;52.00;6476.80
49052;DHT22;34866;48.670;18.260;2023-12-22T16:55:24;51.90;6476.80
49052;DHT22;34866;48.670;18.260;2023-12-22T16:57:50;51.90;6476.80
49052;DHT22;34866;48.670;18.260;2023-12-22T17:00:16;52.00;6476.80
49052;DHT22;34866;48.670;18.260;2023-12-22T17:02:44;52.00;6476.80
49052;DHT22;34866;48.670;18.260;2023-12-22T17:05:09;51.90;6476.80
49052;DHT22;34866;48.670;18.260;2023-12-22T17:07:35;51.90;6476.80
49052;DHT22;34866;48.670;18.260;2023-12-22T17:10:01;51.90;6476.80
49052;DHT22;34866;48.670;18.260;2023-12-22T17:12:26;51.90;6476.80
49052;DHT22;34866;48.670;18.260;2023-12-22T17:14:52;52.10;6476.80
49052;DHT22;34866;48.670;18.260;2023-12-22T17:17:18;52.10;6476.80
49052;DHT22;34866;48.670;18.260;2023-12-22T17:19:43;52.10;6476.80
49052;DHT22;34866;48.670;18.260;2023-12-22T17:22:09;52.00;6476.80
49052;DHT22;34866;48.670;18.260;2023-12-22T17:24:35;52.00;6476.80
49052;DHT22;34866;48.670;18.260;2023-12-22T17:27:00;52.00;6476.80
49052;DHT22;34866;48.670;18.260;2023-12-22T17:29:26;52.00;6476.80
49052;DHT22;34866;48.670;18.260;2023-12-22T17:31:52;52.10;6476.80
49052;DHT22;34866;48.670;18.260;2023-12-22T17:34:22;51.90;6476.80
49052;DHT22;34866;48.670;18.260;2023-12-22T17:36:48;51.90;6476.80
49052;DHT22;34866;48.670;18.260;2023-12-22T17:39:14;51.90;6476.80
49052;DHT22;34866;48.670;18.260;2023-12-22T17:41:39;51.90;6476.80
49052;DHT22;34866;48.670;18.260;2023-12-22T17:44:05;51.90;6476.80
49052;DHT22;34866;48.670;18.260;2023-12-22T17:46:30;52.10;6476.80
49052;DHT22;34866;48.670;18.260;2023-12-22T17:48:56;52.00;6476.80
49052;DHT22;34866;48.670;18.260;2023-12-22T17:51:22;51.90;6476.80
49052;DHT22;34866;48.670;18.260;2023-12-22T17:53:47;51.80;6476.80
49052;DHT22;34866;48.670;18.260;2023-12-22T17:56:13;51.90;6476.80
49052;DHT22;34866;48.670;18.260;2023-12-22T17:58:39;51.80;6476.80
49052;DHT22;34866;48.670;18.260;2023-12-22T18:01:04;51.90;6476.80
49052;DHT22;34866;48.670;18.260;2023-12-22T18:03:30;51.80;6476.80
49052;DHT22;34866;48.670;18.260;2023-12-22T18:05:55;51.90;6476.80
49052;DHT22;34866;48.670;18.260;2023-12-22T18:08:21;51.80;6476.80
49052;DHT22;34866;48.670;18.260;2023-12-22T18:10:47;51.70;6476.80
49052;DHT22;34866;48.670;18.260;2023-12-22T18:13:12;51.70;6476.80
49052;DHT22;34866;48.670;18.260;2023-12-22T18:15:38;51.80;6476.80
49052;DHT22;34866;48.670;18.260;2023-12-22T18:18:04;51.70;6476.80
49052;DHT22;34866;48.670;18.260;2023-12-22T18:20:30;51.60;6476.80
49052;DHT22;34866;48.670;18.260;2023-12-22T18:22:56;51.70;6476.80
49052;DHT22;34866;48.670;18.260;2023-12-22T18:25:21;51.60;6528.00
49052;DHT22;34866;48.670;18.260;2023-12-22T18:27:48;51.70;128.00
49052;DHT22;34866;48.670;18.260;2023-12-22T18:30:14;51.70;128.00
49052;DHT22;34866;48.670;18.260;2023-12-22T18:32:39;51.70;128.00
49052;DHT22;34866;48.670;18.260;2023-12-22T18:35:06;51.80;6476.80
49052;DHT22;34866;48.670;18.260;2023-12-22T18:37:32;51.80;6476.80
49052;DHT22;34866;48.670;18.260;2023-12-22T18:39:57;51.80;6476.80
49052;DHT22;34866;48.670;18.260;2023-12-22T18:42:23;51.90;6476.80
49052;DHT22;34866;48.670;18.260;2023-12-22T18:44:49;51.90;6476.80
49052;DHT22;34866;48.670;18.260;2023-12-22T18:47:14;51.90;6476.80
49052;DHT22;34866;48.670;18.260;2023-12-22T18:49:40;51.90;6476.80
49052;DHT22;34866;48.670;18.260;2023-12-22T18:52:06;51.90;6476.80
49052;DHT22;34866;48.670;18.260;2023-12-22T18:54:31;51.90;6476.80
49052;DHT22;34866;48.670;18.260;2023-12-22T18:56:57;51.90;6476.80
49052;DHT22;34866;48.670;18.260;2023-12-22T18:59:24;51.90;6528.00
49052;DHT22;34866;48.670;18.260;2023-12-22T19:01:50;51.90;6528.00
49052;DHT22;34866;48.670;18.260;2023-12-22T19:04:15;51.90;128.00
49052;DHT22;34866;48.670;18.260;2023-12-22T19:06:41;51.90;153.60
49052;DHT22;34866;48.670;18.260;2023-12-22T19:09:07;51.90;179.20
49052;DHT22;34866;48.670;18.260;2023-12-22T19:11:34;51.80;307.20
49052;DHT22;34866;48.670;18.260;2023-12-22T19:14:00;51.80;256.00
49052;DHT22;34866;48.670;18.260;2023-12-22T19:16:25;51.80;512.00
49052;DHT22;34866;48.670;18.260;2023-12-22T19:18:51;51.70;6476.80
49052;DHT22;34866;48.670;18.260;2023-12-22T19:21:17;51.80;6476.80
49052;DHT22;34866;48.670;18.260;2023-12-22T19:23:43;51.80;6476.80
49052;DHT22;34866;48.670;18.260;2023-12-22T19:26:08;51.80;6476.80
49052;DHT22;34866;48.670;18.260;2023-12-22T19:28:34;51.80;6476.80
49052;DHT22;34866;48.670;18.260;2023-12-22T19:31:02;51.90;6476.80
49052;DHT22;34866;48.670;18.260;2023-12-22T19:33:28;51.90;6476.80
49052;DHT22;34866;48.670;18.260;2023-12-22T19:35:53;51.90;6476.80
49052;DHT22;34866;48.670;18.260;2023-12-22T19:38:20;51.90;6476.80
49052;DHT22;34866;48.670;18.260;2023-12-22T19:40:48;51.80;6476.80
49052;DHT22;34866;48.670;18.260;2023-12-22T19:43:14;51.90;6476.80
49052;DHT22;34866;48.670;18.260;2023-12-22T19:45:40;51.90;6476.80
49052;DHT22;34866;48.670;18.260;2023-12-22T19:48:06;51.90;6476.80
49052;DHT22;34866;48.670;18.260;2023-12-22T19:50:32;51.90;6476.80
49052;DHT22;34866;48.670;18.260;2023-12-22T19:52:58;51.90;6476.80
49052;DHT22;34866;48.670;18.260;2023-12-22T19:55:25;51.90;6476.80
49052;DHT22;34866;48.670;18.260;2023-12-22T19:57:53;51.90;6476.80
49052;DHT22;34866;48.670;18.260;2023-12-22T20:00:20;51.90;6476.80
49052;DHT22;34866;48.670;18.260;2023-12-22T20:02:47;51.90;6476.80
49052;DHT22;34866;48.670;18.260;2023-12-22T20:05:13;51.90;6476.80
49052;DHT22;34866;48.670;18.260;2023-12-22T20:07:40;51.90;6476.80
49052;DHT22;34866;48.670;18.260;2023-12-22T20:10:07;51.90;6476.80
49052;DHT22;34866;48.670;18.260;2023-12-22T20:12:33;51.90;6476.80
49052;DHT22;34866;48.670;18.260;2023-12-22T20:15:02;51.90;6476.80
49052;DHT22;34866;48.670;18.260;2023-12-22T20:17:27;51.90;6476.80
49052;DHT22;34866;48.670;18.260;2023-12-22T20:19:55;51.90;6476.80
49052;DHT22;34866;48.670;18.260;2023-12-22T20:22:21;51.80;6476.80
49052;DHT22;34866;48.670;18.260;2023-12-22T20:24:47;51.90;6476.80
49052;DHT22;34866;48.670;18.260;2023-12-22T20:27:13;51.90;6476.80
49052;DHT22;34866;48.670;18.260;2023-12-22T20:29:38;52.00;6476.80
49052;DHT22;34866;48.670;18.260;2023-12-22T20:32:04;52.00;6476.80
49052;DHT22;34866;48.670;18.260;2023-12-22T20:34:31;52.10;6476.80
49052;DHT22;34866;48.670;18.260;2023-12-22T20:36:58;52.00;6476.80
49052;DHT22;34866;48.670;18.260;2023-12-22T20:39:24;52.00;6476.80
49052;DHT22;34866;48.670;18.260;2023-12-22T20:41:49;51.90;6476.80
49052;DHT22;34866;48.670;18.260;2023-12-22T20:44:15;51.90;6476.80
49052;DHT22;34866;48.670;18.260;2023-12-22T20:46:41;52.10;6476.80
49052;DHT22;34866;48.670;18.260;2023-12-22T20:49:07;52.00;6476.80
49052;DHT22;34866;48.670;18.260;2023-12-22T20:51:39;51.90;6476.80
49052;DHT22;34866;48.670;18.260;2023-12-22T20:54:06;51.80;6476.80
49052;DHT22;34866;48.670;18.260;2023-12-22T20:56:32;51.90;6476.80
49052;DHT22;34866;48.670;18.260;2023-12-22T20:58:58;51.90;6476.80
49052;DHT22;34866;48.670;18.260;2023-12-22T21:01:24;51.90;6476.80
49052;DHT22;34866;48.670;18.260;2023-12-22T21:03:52;52.00;6476.80
49052;DHT22;34866;48.670;18.260;2023-12-22T21:06:18;52.00;6476.80
49052;DHT22;34866;48.670;18.260;2023-12-22T21:08:43;52.10;6476.80
49052;DHT22;34866;48.670;18.260;2023-12-22T21:11:09;52.00;6476.80
49052;DHT22;34866;48.670;18.260;2023-12-22T21:13:35;52.10;6476.80
49052;DHT22;34866;48.670;18.260;2023-12-22T21:16:07;52.10;6476.80
49052;DHT22;34866;48.670;18.260;2023-12-22T21:18:33;52.10;6476.80
49052;DHT22;34866;48.670;18.260;2023-12-22T21:20:59;52.10;6476.80
49052;DHT22;34866;48.670;18.260;2023-12-22T21:23:24;52.10;6476.80
49052;DHT22;34866;48.670;18.260;2023-12-22T21:25:50;52.10;6476.80
49052;DHT22;34866;48.670;18.260;2023-12-22T21:28:16;52.10;6476.80
49052;DHT22;34866;48.670;18.260;2023-12-22T21:30:42;52.10;6476.80
49052;DHT22;34866;48.670;18.260;2023-12-22T21:33:07;52.10;6476.80
49052;DHT22;34866;48.670;18.260;2023-12-22T21:35:33;52.10;6476.80
49052;DHT22;34866;48.670;18.260;2023-12-22T21:38:00;52.10;6476.80
49052;DHT22;34866;48.670;18.260;2023-12-22T21:40:27;52.10;6476.80
49052;DHT22;34866;48.670;18.260;2023-12-22T21:42:53;52.10;6476.80
49052;DHT22;34866;48.670;18.260;2023-12-22T21:45:21;52.10;6476.80
49052;DHT22;34866;48.670;18.260;2023-12-22T21:47:46;52.10;6476.80
49052;DHT22;34866;48.670;18.260;2023-12-22T21:50:12;52.10;6476.80
49052;DHT22;34866;48.670;18.260;2023-12-22T21:52:38;52.10;6476.80
49052;DHT22;34866;48.670;18.260;2023-12-22T21:55:07;52.10;6476.80
49052;DHT22;34866;48.670;18.260;2023-12-22T21:57:33;52.10;6476.80
49052;DHT22;34866;48.670;18.260;2023-12-22T21:59:59;52.10;537.60
49052;DHT22;34866;48.670;18.260;2023-12-22T22:02:25;52.10;486.40
49052;DHT22;34866;48.670;18.260;2023-12-22T22:04:51;52.00;6476.80
49052;DHT22;34866;48.670;18.260;2023-12-22T22:07:16;52.00;6476.80
49052;DHT22;34866;48.670;18.260;2023-12-22T22:09:43;52.00;6476.80
49052;DHT22;34866;48.670;18.260;2023-12-22T22:12:09;52.00;6476.80
49052;DHT22;34866;48.670;18.260;2023-12-22T22:14:34;52.00;6476.80
49052;DHT22;34866;48.670;18.260;2023-12-22T22:17:00;52.00;6476.80
49052;DHT22;34866;48.670;18.260;2023-12-22T22:19:26;51.90;6476.80
49052;DHT22;34866;48.670;18.260;2023-12-22T22:21:52;52.00;6476.80
49052;DHT22;34866;48.670;18.260;2023-12-22T22:24:18;52.00;6476.80
49052;DHT22;34866;48.670;18.260;2023-12-22T22:26:44;52.00;6476.80
49052;DHT22;34866;48.670;18.260;2023-12-22T22:29:10;52.00;6476.80
49052;DHT22;34866;48.670;18.260;2023-12-22T22:31:40;52.00;6476.80
49052;DHT22;34866;48.670;18.260;2023-12-22T22:34:08;52.00;6476.80
49052;DHT22;34866;48.670;18.260;2023-12-22T22:36:34;51.90;6476.80
49052;DHT22;34866;48.670;18.260;2023-12-22T22:38:59;51.90;6476.80
49052;DHT22;34866;48.670;18.260;2023-12-22T22:41:25;52.00;6476.80
49052;DHT22;34866;48.670;18.260;2023-12-22T22:43:51;51.90;6476.80
49052;DHT22;34866;48.670;18.260;2023-12-22T22:46:16;51.90;6476.80
49052;DHT22;34866;48.670;18.260;2023-12-22T22:48:43;51.80;6476.80
49052;DHT22;34866;48.670;18.260;2023-12-22T22:51:09;51.80;6476.80
49052;DHT22;34866;48.670;18.260;2023-12-22T22:53:35;51.90;6476.80
49052;DHT22;34866;48.670;18.260;2023-12-22T22:56:01;51.80;6476.80
49052;DHT22;34866;48.670;18.260;2023-12-22T22:58:27;51.90;6476.80
49052;DHT22;34866;48.670;18.260;2023-12-22T23:00:52;51.90;6476.80
49052;DHT22;34866;48.670;18.260;2023-12-22T23:03:18;51.80;6476.80
49052;DHT22;34866;48.670;18.260;2023-12-22T23:05:44;51.90;6476.80
49052;DHT22;34866;48.670;18.260;2023-12-22T23:08:11;51.90;6476.80
49052;DHT22;34866;48.670;18.260;2023-12-22T23:10:37;51.90;6476.80
49052;DHT22;34866;48.670;18.260;2023-12-22T23:13:03;51.80;6476.80
49052;DHT22;34866;48.670;18.260;2023-12-22T23:15:29;51.80;6476.80
49052;DHT22;34866;48.670;18.260;2023-12-22T23:17:54;51.70;6476.80
49052;DHT22;34866;48.670;18.260;2023-12-22T23:20:20;51.60;6476.80
49052;DHT22;34866;48.670;18.260;2023-12-22T23:22:46;51.70;6476.80
49052;DHT22;34866;48.670;18.260;2023-12-22T23:25:11;51.80;6476.80
49052;DHT22;34866;48.670;18.260;2023-12-22T23:27:37;51.80;6476.80
49052;DHT22;34866;48.670;18.260;2023-12-22T23:30:03;51.70;6476.80
49052;DHT22;34866;48.670;18.260;2023-12-22T23:32:31;51.70;6476.80
49052;DHT22;34866;48.670;18.260;2023-12-22T23:34:57;51.60;6476.80
49052;DHT22;34866;48.670;18.260;2023-12-22T23:37:23;51.60;6476.80
49052;DHT22;34866;48.670;18.260;2023-12-22T23:39:48;51.70;6476.80
49052;DHT22;34866;48.670;18.260;2023-12-22T23:42:15;51.70;6476.80
49052;DHT22;34866;48.670;18.260;2023-12-22T23:44:40;51.60;6476.80
49052;DHT22;34866;48.670;18.260;2023-12-22T23:47:08;51.60;6476.80
49052;DHT22;34866;48.670;18.260;2023-12-22T23:49:34;51.70;6476.80
49052;DHT22;34866;48.670;18.260;2023-12-22T23:52:00;51.70;6476.80
49052;DHT22;34866;48.670;18.260;2023-12-22T23:54:26;51.70;6476.80
49052;DHT22;34866;48.670;18.260;2023-12-22T23:56:51;51.60;6476.80
49052;DHT22;34866;48.670;18.260;2023-12-22T23:59:17;51.60;6476.80
